Terminal Aerodrome Forecast
Issued by NWS Knoxville/Tri Cities, TN

Home | Current Version | Previous Version | Text Only | Print | Product List | Glossary On
Versions: 1 2 3 4 5 6 7 8 9 10 11 12 13 14 15 16 17 18 19 20 21 22 23 24 25 26 27 28 29 30 31 32 33 34 35 36 37 38 39 40 41 42 43 44 45 46
000
FTUS44 KMRX 120530
TAFTRI
TAF
KTRI 120530Z 1206/1306 VRB03KT P6SM BKN100
     FM121300 VRB04KT 1 1/2SM -SN OVC010
      TEMPO 1214/1217 3/4SM -SN OVC007
     FM122000 26010KT 4SM -SN OVC015
     FM130000 28012KT P6SM -SHSN OVC025=

USA.gov is the U.S. government's official web portal to all federal, state and local government web resources and services.